Mandoudi — SV3198 — position and weather

sailwx.info

Track history (hours):
 
Tides and Currents Weather Stations Pressure Air Temp Water Temp Dewpoint Dewpoint Depression Visibility Wind Speed Wind Dir Waves Ship Positions

Mandoudi

Last reported at 2017-Apr-26 06:00 UTC. Time now 2017-Apr-26 06:08 UTC.
Position N 37°56' E 023°38'.

Length 60 m; draft 4.6 m.

Type: Ship (hazmat cat A). MMSI: 237470200.

Date/timePositionNaut miles runAvg speedWind from/ knotsBaromVisibWave heightAir tempDewpointWater temp
2017-Apr-26 06:00N 37°56' E 023°38'0 0.0
2017-Apr-26 05:31N 37°56' E 023°38'0 0.2
2017-Apr-26 05:01N 37°56' E 023°38'1 2.8
2017-Apr-26 04:30N 37°58' E 023°37'0 0.0
2017-Apr-26 04:01N 37°58' E 023°37'0 0.0
2017-Apr-26 03:30N 37°58' E 023°37'0 0.0
2017-Apr-26 03:01N 37°58' E 023°37'0 0.0
2017-Apr-26 02:31N 37°58' E 023°37'0 0.0
2017-Apr-26 02:00N 37°58' E 023°37'0 0.0
2017-Apr-26 01:30N 37°58' E 023°37'0 0.0
2017-Apr-26 01:01N 37°58' E 023°37'0 0.0
2017-Apr-26 00:31N 37°58' E 023°37'0 0.0
2017-Apr-26 00:01N 37°58' E 023°37'0 0.0
2017-Apr-25 23:30N 37°58' E 023°37'0 0.0
2017-Apr-25 23:01N 37°58' E 023°37'0 0.0
2017-Apr-25 22:31N 37°58' E 023°37'0 0.0
2017-Apr-25 22:01N 37°58' E 023°37'0 0.0
2017-Apr-25 21:31N 37°58' E 023°37'0 0.0
2017-Apr-25 21:00N 37°58' E 023°37'0 0.0
2017-Apr-25 20:31N 37°58' E 023°37'0 0.0
2017-Apr-25 20:01N 37°58' E 023°37'0 0.0
2017-Apr-25 19:31N 37°58' E 023°37'0 0.0
2017-Apr-25 19:00N 37°58' E 023°37'0 0.0
2017-Apr-25 18:30N 37°58' E 023°37'0 0.0
2017-Apr-25 18:01N 37°58' E 023°37'0 0.0
2017-Apr-25 17:31N 37°58' E 023°37'3 6.4
2017-Apr-25 17:00N 37°58' E 023°33'4 8.3
2017-Apr-25 16:31N 38°02' E 023°31'0 0.2
2017-Apr-25 16:00N 38°02' E 023°31'0 0.0
2017-Apr-25 15:30N 38°02' E 023°31'0 0.0
2017-Apr-25 15:00N 38°02' E 023°31'0 0.0
2017-Apr-25 14:01N 38°02' E 023°31'0 0.0
2017-Apr-25 13:31N 38°02' E 023°31'0 0.0
2017-Apr-25 13:00N 38°02' E 023°31'0 0.0
2017-Apr-25 12:30N 38°02' E 023°31'1 1.3
2017-Apr-25 12:01N 38°02' E 023°31'0 0.0
2017-Apr-25 11:31N 38°02' E 023°31'0 0.0
2017-Apr-25 11:00N 38°02' E 023°31'0 0.0
2017-Apr-25 10:31N 38°02' E 023°31'0 0.0
2017-Apr-25 10:00N 38°02' E 023°31'3 5.1
2017-Apr-25 09:31N 37°59' E 023°33'4 8.5
2017-Apr-25 09:01N 37°56' E 023°37'1 2.7
2017-Apr-25 08:30N 37°57' E 023°38'0 0.0
2017-Apr-25 08:00N 37°57' E 023°38'0 0.0
2017-Apr-25 07:31N 37°57' E 023°38'0 0.0
2017-Apr-25 07:01N 37°57' E 023°38'0 0.0
2017-Apr-25 06:30N 37°57' E 023°38'2 4.0
2017-Apr-25 06:01N 37°57' E 023°36'1 1.8
2017-Apr-25 05:31N 37°58' E 023°37'0 0.0
2017-Apr-25 05:01N 37°58' E 023°37'0 0.0
2017-Apr-25 04:31N 37°58' E 023°37'0 0.0
2017-Apr-25 04:00N 37°58' E 023°37'0 0.0
2017-Apr-25 03:31N 37°58' E 023°37'0 0.0
2017-Apr-25 03:01N 37°58' E 023°37'0 0.0
2017-Apr-25 02:31N 37°58' E 023°37'0 0.0
2017-Apr-25 02:01N 37°58' E 023°37'0 0.0
2017-Apr-25 01:31N 37°58' E 023°37'0 0.0
2017-Apr-25 01:01N 37°58' E 023°37'0 0.0
2017-Apr-25 00:30N 37°58' E 023°37'0 0.0
2017-Apr-25 00:00N 37°58' E 023°37'0 0.0
2017-Apr-24 23:31N 37°58' E 023°37'0 0.0
2017-Apr-24 23:01N 37°58' E 023°37'0 0.0
2017-Apr-24 22:31N 37°58' E 023°37'0 0.0
2017-Apr-24 22:01N 37°58' E 023°37'0 0.0
2017-Apr-24 21:31N 37°58' E 023°37'0 0.0
2017-Apr-24 21:01N 37°58' E 023°37'0 0.0
2017-Apr-24 20:31N 37°58' E 023°37'0 0.0
2017-Apr-24 20:01N 37°58' E 023°37'0 0.0
2017-Apr-24 19:31N 37°58' E 023°37'0 0.0
2017-Apr-24 19:00N 37°58' E 023°37'0 0.0
2017-Apr-24 18:31N 37°58' E 023°37'0 0.0
2017-Apr-24 18:01N 37°58' E 023°37'0 0.0
2017-Apr-24 17:30N 37°58' E 023°37'0 0.0
2017-Apr-24 17:01N 37°58' E 023°37'0 0.0
2017-Apr-24 16:31N 37°58' E 023°37'0 0.0
2017-Apr-24 16:01N 37°58' E 023°37'0 0.0
2017-Apr-24 15:31N 37°58' E 023°37'0 0.0
2017-Apr-24 15:00N 37°58' E 023°37'0 0.0
2017-Apr-24 14:31N 37°58' E 023°37'0 0.0
2017-Apr-24 13:31N 37°58' E 023°37'0 0.0
2017-Apr-24 13:01N 37°58' E 023°37'0 0.0
2017-Apr-24 12:31N 37°58' E 023°37'0 0.0
2017-Apr-24 12:01N 37°58' E 023°37'0 0.0
2017-Apr-24 11:30N 37°58' E 023°37'0 0.0
2017-Apr-24 11:01N 37°58' E 023°37'0 0.0
2017-Apr-24 10:31N 37°58' E 023°37'0 1.0
2017-Apr-24 10:00N 37°57' E 023°36'2 3.9
2017-Apr-24 09:31N 37°56' E 023°38'0 0.0
2017-Apr-24 09:01N 37°56' E 023°38'0 0.0
2017-Apr-24 08:31N 37°56' E 023°38'0 0.0
2017-Apr-24 08:01N 37°56' E 023°38'0 0.0
2017-Apr-24 07:30N 37°56' E 023°38'0 0.0
2017-Apr-24 07:00N 37°56' E 023°38'0 0.0
2017-Apr-24 06:31N 37°56' E 023°38'0 0.0
2017-Apr-24 06:00N 37°56' E 023°38'1 2.3
2017-Apr-24 05:31N 37°56' E 023°37'1 2.1
2017-Apr-24 05:01N 37°58' E 023°37'0 0.0
2017-Apr-24 04:31N 37°58' E 023°37'0 0.0
2017-Apr-24 04:00N 37°58' E 023°37'0 0.0
2017-Apr-24 03:30N 37°58' E 023°37'0 0.0
2017-Apr-24 03:01N 37°58' E 023°37'0 0.0
2017-Apr-24 02:30N 37°58' E 023°37'0 0.0
2017-Apr-24 02:00N 37°58' E 023°37'0 0.0
2017-Apr-24 01:31N 37°58' E 023°37'0 0.0
2017-Apr-24 01:01N 37°58' E 023°37'0 0.0
2017-Apr-24 00:31N 37°58' E 023°37'0 0.0
2017-Apr-24 00:01N 37°58' E 023°37'0 0.0
2017-Apr-23 23:31N 37°58' E 023°37'0 0.0
2017-Apr-23 23:01N 37°58' E 023°37'0 0.0
2017-Apr-23 22:30N 37°58' E 023°37'0 0.0
2017-Apr-23 22:01N 37°58' E 023°37'0 0.0
2017-Apr-23 21:30N 37°58' E 023°37'0 0.0
2017-Apr-23 21:00N 37°58' E 023°37'0 0.0
2017-Apr-23 20:31N 37°58' E 023°37'0 0.0
2017-Apr-23 20:01N 37°58' E 023°37'0 0.0
2017-Apr-23 19:31N 37°58' E 023°37'0 0.0
2017-Apr-23 19:01N 37°58' E 023°37'0 0.0
2017-Apr-23 18:30N 37°58' E 023°37'0 0.0
2017-Apr-23 18:00N 37°58' E 023°37'0 0.0
2017-Apr-23 17:30N 37°58' E 023°37'0 0.0
2017-Apr-23 17:01N 37°58' E 023°37'0 0.0
2017-Apr-23 16:30N 37°58' E 023°37'0 0.0
2017-Apr-23 16:00N 37°58' E 023°37'0 0.0
2017-Apr-23 15:30N 37°58' E 023°37'0 0.0
2017-Apr-23 15:01N 37°58' E 023°37'0 0.0
2017-Apr-23 14:00N 37°58' E 023°37'0 0.0
2017-Apr-23 13:30N 37°58' E 023°37'0 0.0
2017-Apr-23 13:00N 37°58' E 023°37'0 0.0
2017-Apr-23 12:30N 37°58' E 023°37'0 0.0
2017-Apr-23 12:00N 37°58' E 023°37'0 0.0
2017-Apr-23 11:31N 37°58' E 023°37'0 0.0
2017-Apr-23 11:01N 37°58' E 023°37'0 0.0
2017-Apr-23 10:31N 37°58' E 023°37'0 0.0
2017-Apr-23 10:01N 37°58' E 023°37'0 0.0
2017-Apr-23 09:31N 37°58' E 023°37'0 0.0
2017-Apr-23 09:00N 37°58' E 023°37'0 0.0
2017-Apr-23 08:31N 37°58' E 023°37'0 0.0
2017-Apr-23 08:00N 37°58' E 023°37'0 0.0
2017-Apr-23 07:30N 37°58' E 023°37'0 0.0
2017-Apr-23 07:00N 37°58' E 023°37'0 0.0
2017-Apr-23 06:31N 37°58' E 023°37'0 0.0
2017-Apr-23 06:01N 37°58' E 023°37'0 0.0
2017-Apr-23 05:31N 37°58' E 023°37'0 0.0
2017-Apr-23 05:01N 37°58' E 023°37'0 0.0
2017-Apr-23 04:31N 37°58' E 023°37'0 0.0
2017-Apr-23 04:00N 37°58' E 023°37'0 0.0
2017-Apr-23 03:30N 37°58' E 023°37'0 0.0
2017-Apr-23 03:00N 37°58' E 023°37'0 0.0
2017-Apr-23 02:31N 37°58' E 023°37'0 0.0
2017-Apr-23 02:01N 37°58' E 023°37'0 0.0
2017-Apr-23 01:31N 37°58' E 023°37'0 0.0
2017-Apr-23 01:01N 37°58' E 023°37'0 0.0
2017-Apr-23 00:31N 37°58' E 023°37'0 0.0
2017-Apr-23 00:01N 37°58' E 023°37'0 0.0
2017-Apr-22 23:30N 37°58' E 023°37'0 0.0
2017-Apr-22 23:01N 37°58' E 023°37'0 0.0
2017-Apr-22 22:31N 37°58' E 023°37'0 0.0
2017-Apr-22 22:01N 37°58' E 023°37'0 0.0
2017-Apr-22 21:30N 37°58' E 023°37'0 0.0
2017-Apr-22 21:00N 37°58' E 023°37'0 0.0
2017-Apr-22 20:31N 37°58' E 023°37'0 0.0
2017-Apr-22 20:01N 37°58' E 023°37'0 0.0
2017-Apr-22 19:31N 37°58' E 023°37'0 0.0
2017-Apr-22 19:00N 37°58' E 023°37'0 0.0
2017-Apr-22 18:31N 37°58' E 023°37'0 0.0
2017-Apr-22 18:01N 37°58' E 023°37'0 0.0
2017-Apr-22 17:30N 37°58' E 023°37'0 0.0
2017-Apr-22 17:01N 37°58' E 023°37'0 0.0
2017-Apr-22 16:31N 37°58' E 023°37'0 0.0
2017-Apr-22 16:01N 37°58' E 023°37'0 0.0
2017-Apr-22 15:30N 37°58' E 023°37'0 0.0
2017-Apr-22 15:01N 37°58' E 023°37'0 0.0
2017-Apr-22 14:31N 37°58' E 023°37'0 0.0
2017-Apr-22 13:30N 37°58' E 023°37'0 0.0
2017-Apr-22 13:01N 37°58' E 023°37'0 0.0
2017-Apr-22 12:30N 37°58' E 023°37'0 0.0
2017-Apr-22 12:01N 37°58' E 023°37'0 0.0
2017-Apr-22 11:30N 37°58' E 023°37'0 0.0
2017-Apr-22 11:00N 37°58' E 023°37'0 0.0
2017-Apr-22 10:31N 37°58' E 023°37'0 0.0
2017-Apr-22 10:01N 37°58' E 023°37'1 1.4
2017-Apr-22 09:31N 37°57' E 023°36'3 6.5
2017-Apr-22 09:01N 37°59' E 023°33'3 6.6
2017-Apr-22 08:30N 38°02' E 023°31'0 0.0
2017-Apr-22 08:01N 38°02' E 023°31'0 0.0
2017-Apr-22 07:31N 38°02' E 023°31'0 0.0
2017-Apr-22 07:00N 38°02' E 023°31'0 0.0
2017-Apr-22 06:31N 38°02' E 023°31'0 0.0
2017-Apr-22 06:01N 38°02' E 023°31'1 2.8
2017-Apr-22 05:30N 38°01' E 023°32'4 8.0
2017-Apr-22 05:01N 37°57' E 023°34'2 4.7
2017-Apr-22 04:31N 37°58' E 023°37'0 0.0
2017-Apr-22 04:00N 37°58' E 023°37'0 0.0
2017-Apr-22 03:30N 37°58' E 023°37'0 0.0
2017-Apr-22 03:01N 37°58' E 023°37'0 0.0
2017-Apr-22 02:30N 37°58' E 023°37'0 0.0
2017-Apr-22 02:00N 37°58' E 023°37'0 0.0
2017-Apr-22 01:31N 37°58' E 023°37'0 0.0
2017-Apr-22 01:00N 37°58' E 023°37'0 0.0
2017-Apr-22 00:30N 37°58' E 023°37'0 0.0
2017-Apr-22 00:01N 37°58' E 023°37'0 0.0
2017-Apr-21 23:31N 37°58' E 023°37'0 0.0
2017-Apr-21 23:01N 37°58' E 023°37'0 0.0
2017-Apr-21 22:31N 37°58' E 023°37'0 0.0
2017-Apr-21 22:01N 37°58' E 023°37'0 0.0
2017-Apr-21 21:30N 37°58' E 023°37'0 0.0
2017-Apr-21 21:01N 37°58' E 023°37'0 0.0
2017-Apr-21 20:31N 37°58' E 023°37'0 0.0
2017-Apr-21 20:01N 37°58' E 023°37'0 0.0
2017-Apr-21 19:31N 37°58' E 023°37'0 0.0
2017-Apr-21 19:01N 37°58' E 023°37'0 0.0
2017-Apr-21 18:30N 37°58' E 023°37'0 0.0
2017-Apr-21 18:01N 37°58' E 023°37'0 0.0
2017-Apr-21 17:31N 37°58' E 023°37'0 0.0
2017-Apr-21 17:01N 37°58' E 023°37'0 0.0
2017-Apr-21 16:30N 37°58' E 023°37'2 4.1
2017-Apr-21 16:01N 37°57' E 023°34'4 7.2
2017-Apr-21 15:31N 38°01' E 023°34'1 2.8
2017-Apr-21 15:00N 38°02' E 023°36'0 0.0
2017-Apr-21 14:30N 38°02' E 023°36'0 0.0
2017-Apr-21 13:30N 38°02' E 023°36'0 0.0
2017-Apr-21 13:01N 38°02' E 023°36'0 0.2
2017-Apr-21 12:31N 38°02' E 023°36'1 1.0
2017-Apr-21 12:00N 38°02' E 023°35'0 0.0
2017-Apr-21 11:30N 38°02' E 023°35'0 0.0
2017-Apr-21 11:01N 38°02' E 023°35'0 0.8
2017-Apr-21 10:30N 38°01' E 023°35'4 7.9
2017-Apr-21 10:00N 37°57' E 023°34'3 6.9
2017-Apr-21 09:31N 37°57' E 023°38'0 0.0
2017-Apr-21 09:00N 37°57' E 023°38'0 0.0
2017-Apr-21 08:30N 37°57' E 023°38'0 0.0
2017-Apr-21 08:01N 37°57' E 023°38'0 0.0
2017-Apr-21 07:31N 37°57' E 023°38'0 0.2
2017-Apr-21 07:01N 37°57' E 023°38'0 0.0
2017-Apr-21 06:31N 37°57' E 023°38'0 0.0
2017-Apr-21 06:01N 37°57' E 023°38'0 0.0
2017-Apr-21 05:31N 37°57' E 023°38'0 0.0
2017-Apr-21 05:00N 37°57' E 023°38'2 4.0
2017-Apr-21 04:30N 37°57' E 023°36'1 1.8
2017-Apr-21 04:01N 37°58' E 023°37'0 0.0
2017-Apr-21 03:31N 37°58' E 023°37'0 0.0
2017-Apr-21 03:00N 37°58' E 023°37'0 0.0
2017-Apr-21 02:30N 37°58' E 023°37'0 0.0
2017-Apr-21 02:00N 37°58' E 023°37'0 0.0
2017-Apr-21 01:31N 37°58' E 023°37'0 0.0
2017-Apr-21 01:01N 37°58' E 023°37'0 0.0
2017-Apr-21 00:31N 37°58' E 023°37'0 0.0
2017-Apr-21 00:00N 37°58' E 023°37'0 0.0
2017-Apr-20 23:31N 37°58' E 023°37'0 0.0
2017-Apr-20 23:01N 37°58' E 023°37'0 0.0
2017-Apr-20 22:31N 37°58' E 023°37'0 0.0
2017-Apr-20 22:01N 37°58' E 023°37'0 0.0
2017-Apr-20 21:31N 37°58' E 023°37'0 0.0
2017-Apr-20 21:00N 37°58' E 023°37'0 0.0
2017-Apr-20 20:31N 37°58' E 023°37'0 0.0
2017-Apr-20 20:01N 37°58' E 023°37'0 0.0
2017-Apr-20 19:31N 37°58' E 023°37'0 0.0
2017-Apr-20 19:00N 37°58' E 023°37'0 0.0
2017-Apr-20 18:31N 37°58' E 023°37'0 0.0
2017-Apr-20 18:01N 37°58' E 023°37'0 0.0
2017-Apr-20 17:31N 37°58' E 023°37'0 0.0
2017-Apr-20 17:00N 37°58' E 023°37'0 0.0
2017-Apr-20 16:30N 37°58' E 023°37'0 0.0
2017-Apr-20 16:00N 37°58' E 023°37'0 0.0
2017-Apr-20 15:31N 37°58' E 023°37'0 0.0
2017-Apr-20 15:00N 37°58' E 023°37'0 0.0
2017-Apr-20 14:01N 37°58' E 023°37'0 0.0
2017-Apr-20 13:31N 37°58' E 023°37'0 0.0
2017-Apr-20 13:00N 37°58' E 023°37'0 0.0
2017-Apr-20 12:30N 37°58' E 023°37'0 0.0
2017-Apr-20 12:00N 37°58' E 023°37'2 4.1
2017-Apr-20 11:31N 37°57' E 023°34'4 8.6
2017-Apr-20 11:01N 38°01' E 023°32'1 2.7
2017-Apr-20 10:30N 38°02' E 023°31'0 0.0
2017-Apr-20 10:00N 38°02' E 023°31'0 0.0
2017-Apr-20 09:30N 38°02' E 023°31'0 0.0
2017-Apr-20 09:00N 38°02' E 023°31'0 0.0
2017-Apr-20 08:30N 38°02' E 023°31'1 2.7
2017-Apr-20 08:01N 38°02' E 023°32'3 5.4
2017-Apr-20 07:31N 38°02' E 023°36'0 0.0
2017-Apr-20 07:01N 38°02' E 023°36'0 0.0
2017-Apr-20 06:30N 38°02' E 023°36'0 0.0
2017-Apr-20 06:01N 38°02' E 023°36'0 0.0
2017-Apr-20 05:31N 38°02' E 023°36'0 0.1
2017-Apr-20 05:01N 38°02' E 023°36'4 8.5
2017-Apr-20 04:31N 37°58' E 023°33'3 6.2
2017-Apr-20 04:00N 37°58' E 023°37'0 0.0
2017-Apr-20 03:30N 37°58' E 023°37'0 0.0
2017-Apr-20 03:00N 37°58' E 023°37'0 0.0
2017-Apr-20 02:31N 37°58' E 023°37'0 0.0
2017-Apr-20 02:00N 37°58' E 023°37'0 0.0
2017-Apr-20 01:31N 37°58' E 023°37'0 0.0
2017-Apr-20 01:01N 37°58' E 023°37'0 0.0
2017-Apr-20 00:31N 37°58' E 023°37'0 0.0
2017-Apr-20 00:01N 37°58' E 023°37'0 0.0
2017-Apr-19 23:31N 37°58' E 023°37'0 0.0
2017-Apr-19 23:01N 37°58' E 023°37'0 0.0
2017-Apr-19 22:30N 37°58' E 023°37'0 0.0
2017-Apr-19 22:01N 37°58' E 023°37'0 0.0
2017-Apr-19 21:31N 37°58' E 023°37'0 0.0
2017-Apr-19 21:01N 37°58' E 023°37'0 0.0
2017-Apr-19 20:31N 37°58' E 023°37'0 0.0
2017-Apr-19 20:01N 37°58' E 023°37'0 0.0
2017-Apr-19 19:30N 37°58' E 023°37'0 0.0
2017-Apr-19 19:00N 37°58' E 023°37'0 0.0
2017-Apr-19 18:31N 37°58' E 023°37'0 0.0
2017-Apr-19 18:01N 37°58' E 023°37'0 0.0
2017-Apr-19 17:31N 37°58' E 023°37'0 0.0
2017-Apr-19 17:01N 37°58' E 023°37'0 0.0
2017-Apr-19 16:31N 37°58' E 023°37'0 0.0
2017-Apr-19 16:00N 37°58' E 023°37'0 0.0
2017-Apr-19 15:30N 37°58' E 023°37'0 0.0
2017-Apr-19 15:01N 37°58' E 023°37'0 0.0
2017-Apr-19 14:31N 37°58' E 023°37'0 0.0
2017-Apr-19 13:31N 37°58' E 023°37'0 0.0
2017-Apr-19 13:00N 37°58' E 023°37'0 0.6
2017-Apr-19 12:30N 37°57' E 023°36'1 2.9
2017-Apr-19 12:00N 37°56' E 023°37'1 1.3
2017-Apr-19 11:31N 37°57' E 023°38'0 0.0
2017-Apr-19 11:01N 37°57' E 023°38'0 0.0
2017-Apr-19 10:30N 37°57' E 023°38'0 0.0
2017-Apr-19 09:59N 37°57' E 023°38'0 0.0
2017-Apr-19 09:28N 37°57' E 023°38'0 0.0
2017-Apr-19 09:01N 37°57' E 023°38'0 0.0
2017-Apr-19 08:31N 37°57' E 023°38'0 0.5
2017-Apr-19 08:01N 37°57' E 023°38'0 0.0
2017-Apr-19 07:30N 37°57' E 023°38'0 0.0
2017-Apr-19 07:00N 37°57' E 023°38'0 0.0
2017-Apr-19 06:31N 37°57' E 023°38'0 0.2
2017-Apr-19 06:00N 37°57' E 023°38'1 2.9
2017-Apr-19 05:30N 37°58' E 023°37'0 0.0
2017-Apr-19 05:01N 37°58' E 023°37'0 0.0
2017-Apr-19 04:31N 37°58' E 023°37'0 0.0
2017-Apr-19 04:01N 37°58' E 023°37'0 0.0
2017-Apr-19 03:30N 37°58' E 023°37'0 0.0
2017-Apr-19 03:01N 37°58' E 023°37'0 0.0
2017-Apr-19 02:31N 37°58' E 023°37'0 0.0
2017-Apr-19 02:01N 37°58' E 023°37'0 0.0
2017-Apr-19 01:31N 37°58' E 023°37'0 0.0
2017-Apr-19 01:01N 37°58' E 023°37'0 0.0
2017-Apr-19 00:31N 37°58' E 023°37'0 0.0
2017-Apr-19 00:01N 37°58' E 023°37'0 0.0
2017-Apr-18 23:30N 37°58' E 023°37'0 0.0
2017-Apr-18 23:01N 37°58' E 023°37'0 0.0
2017-Apr-18 22:31N 37°58' E 023°37'0 0.0
2017-Apr-18 22:01N 37°58' E 023°37'0 0.0
2017-Apr-18 21:30N 37°58' E 023°37'0 0.0
2017-Apr-18 21:01N 37°58' E 023°37'0 0.0
2017-Apr-18 20:31N 37°58' E 023°37'0 0.0
2017-Apr-18 20:00N 37°58' E 023°37'0 0.0
2017-Apr-18 19:31N 37°58' E 023°37'0 0.0
2017-Apr-18 19:01N 37°58' E 023°37'0 0.0
2017-Apr-18 18:31N 37°58' E 023°37'0 0.0
2017-Apr-18 18:01N 37°58' E 023°37'0 0.0
2017-Apr-18 17:30N 37°58' E 023°37'0 0.0
2017-Apr-18 17:01N 37°58' E 023°37'1 2.0
2017-Apr-18 16:31N 37°57' E 023°36'3 5.0
2017-Apr-18 16:01N 37°58' E 023°33'4 8.2
2017-Apr-18 15:31N 38°02' E 023°31'0 0.3
2017-Apr-18 15:01N 38°02' E 023°31'0 0.0
2017-Apr-18 14:31N 38°02' E 023°31'0 0.0
2017-Apr-18 13:31N 38°02' E 023°31'0 0.0
2017-Apr-18 13:01N 38°02' E 023°31'3 5.4
2017-Apr-18 12:30N 38°01' E 023°34'1 2.7
2017-Apr-18 12:00N 38°02' E 023°36'0 0.0
2017-Apr-18 11:31N 38°02' E 023°36'0 0.0
2017-Apr-18 11:01N 38°02' E 023°36'0 0.0
2017-Apr-18 10:30N 38°02' E 023°36'0 0.5
2017-Apr-18 10:01N 38°02' E 023°35'1 2.0
2017-Apr-18 09:30N 38°01' E 023°34'2 3.3
2017-Apr-18 09:00N 38°01' E 023°32'0 0.0
2017-Apr-18 08:31N 38°01' E 023°32'2 4.0
2017-Apr-18 08:01N 37°59' E 023°33'4 7.9
2017-Apr-18 07:31N 37°57' E 023°36'1 3.0
2017-Apr-18 07:01N 37°57' E 023°38'0 0.0
2017-Apr-18 06:30N 37°57' E 023°38'0 0.0
2017-Apr-18 06:01N 37°57' E 023°38'0 0.0
2017-Apr-18 05:31N 37°57' E 023°38'0 0.0
2017-Apr-18 05:01N 37°57' E 023°38'0 0.4
2017-Apr-18 04:31N 37°57' E 023°38'0 0.0
2017-Apr-18 04:00N 37°57' E 023°38'0 0.0
2017-Apr-18 03:30N 37°57' E 023°38'0 0.0
2017-Apr-18 03:01N 37°57' E 023°38'0 0.0
2017-Apr-18 02:31N 37°57' E 023°38'0 0.0
2017-Apr-18 02:01N 37°57' E 023°38'1 2.8
2017-Apr-18 01:31N 37°57' E 023°37'1 2.0
2017-Apr-18 01:01N 37°58' E 023°37'0 0.0
2017-Apr-18 00:31N 37°58' E 023°37'0 0.0
2017-Apr-18 00:01N 37°58' E 023°37'0 0.0
2017-Apr-17 23:30N 37°58' E 023°37'0 0.0
2017-Apr-17 23:01N 37°58' E 023°37'0 0.0
2017-Apr-17 22:31N 37°58' E 023°37'0 0.0
2017-Apr-17 22:00N 37°58' E 023°37'0 0.0
2017-Apr-17 21:31N 37°58' E 023°37'0 0.0
2017-Apr-17 21:01N 37°58' E 023°37'0 0.0
2017-Apr-17 20:31N 37°58' E 023°37'0 0.0
2017-Apr-17 20:01N 37°58' E 023°37'0 0.0
2017-Apr-17 19:31N 37°58' E 023°37'0 0.0
2017-Apr-17 19:01N 37°58' E 023°37'0 0.0
2017-Apr-17 18:30N 37°58' E 023°37'0 0.0
2017-Apr-17 18:01N 37°58' E 023°37'0 0.0
2017-Apr-17 17:30N 37°58' E 023°37'0 0.0
2017-Apr-17 17:01N 37°58' E 023°37'0 0.0
2017-Apr-17 16:30N 37°58' E 023°37'0 0.0
2017-Apr-17 15:57N 37°58' E 023°37'0 0.0
2017-Apr-17 15:30N 37°58' E 023°37'0 0.0
2017-Apr-17 15:00N 37°58' E 023°37'0 0.0
2017-Apr-17 13:59N 37°58' E 023°37'0 0.0
2017-Apr-17 13:22N 37°58' E 023°37'0 0.0
2017-Apr-17 12:56N 37°58' E 023°37'0 0.0
2017-Apr-17 12:26N 37°58' E 023°37'0 0.0
2017-Apr-17 11:59N 37°58' E 023°37'0 0.0
2017-Apr-17 11:28N 37°58' E 023°37'0 0.0
2017-Apr-17 11:00N 37°58' E 023°37'0 0.0
2017-Apr-17 10:28N 37°58' E 023°37'0 0.0
2017-Apr-17 10:00N 37°58' E 023°37'0 0.0
2017-Apr-17 09:26N 37°58' E 023°37'0 0.0
2017-Apr-17 08:54N 37°58' E 023°37'0 0.0
2017-Apr-17 08:29N 37°58' E 023°37'0 0.0
2017-Apr-16 14:35N 37°58' E 023°37'0 0.0
2017-Apr-16 14:30N 37°58' E 023°37'0 0.0
2017-Apr-16 13:31N 37°58' E 023°37'0 0.0
2017-Apr-16 13:00N 37°58' E 023°37'0 0.0
2017-Apr-16 12:31N 37°58' E 023°37'0 0.0
2017-Apr-16 12:01N 37°58' E 023°37'0 0.0
2017-Apr-16 11:31N 37°58' E 023°37'0 0.0
2017-Apr-16 11:01N 37°58' E 023°37'0 0.0
2017-Apr-16 10:30N 37°58' E 023°37'0 0.0
2017-Apr-16 10:01N 37°58' E 023°37'0 0.0
2017-Apr-16 09:30N 37°58' E 023°37'0 0.0
2017-Apr-16 09:00N 37°58' E 023°37'0 0.0
2017-Apr-16 08:30N 37°58' E 023°37'0 0.0
2017-Apr-16 08:01N 37°58' E 023°37'0 0.0
2017-Apr-16 07:30N 37°58' E 023°37'0 0.0
2017-Apr-16 07:01N 37°58' E 023°37'0 0.0
2017-Apr-16 06:31N 37°58' E 023°37'0 0.0
2017-Apr-16 06:01N 37°58' E 023°37'  
Track history (hours):
 
Tides and Currents Weather Stations Pressure Air Temp Water Temp Dewpoint Dewpoint Depression Visibility Wind Speed Wind Dir Waves Ship Positions

Mandoudi

Last reported at 2017-Apr-26 06:00 UTC. Time now 2017-Apr-26 06:08 UTC.
Position N 37°56' E 023°38'.

Length 60 m; draft 4.6 m.

Type: Ship (hazmat cat A). MMSI: 237470200.

Date/timePositionNaut miles runAvg speedWind from/ knotsBaromVisibWave heightAir tempDewpointWater temp
2017-Apr-26 06:00N 37°56' E 023°38'0 0.0
2017-Apr-26 05:31N 37°56' E 023°38'0 0.2
2017-Apr-26 05:01N 37°56' E 023°38'1 2.8
2017-Apr-26 04:30N 37°58' E 023°37'0 0.0
2017-Apr-26 04:01N 37°58' E 023°37'0 0.0
2017-Apr-26 03:30N 37°58' E 023°37'0 0.0
2017-Apr-26 03:01N 37°58' E 023°37'0 0.0
2017-Apr-26 02:31N 37°58' E 023°37'0 0.0
2017-Apr-26 02:00N 37°58' E 023°37'0 0.0
2017-Apr-26 01:30N 37°58' E 023°37'0 0.0
2017-Apr-26 01:01N 37°58' E 023°37'0 0.0
2017-Apr-26 00:31N 37°58' E 023°37'0 0.0
2017-Apr-26 00:01N 37°58' E 023°37'0 0.0
2017-Apr-25 23:30N 37°58' E 023°37'0 0.0
2017-Apr-25 23:01N 37°58' E 023°37'0 0.0
2017-Apr-25 22:31N 37°58' E 023°37'0 0.0
2017-Apr-25 22:01N 37°58' E 023°37'0 0.0
2017-Apr-25 21:31N 37°58' E 023°37'0 0.0
2017-Apr-25 21:00N 37°58' E 023°37'0 0.0
2017-Apr-25 20:31N 37°58' E 023°37'0 0.0
2017-Apr-25 20:01N 37°58' E 023°37'0 0.0
2017-Apr-25 19:31N 37°58' E 023°37'0 0.0
2017-Apr-25 19:00N 37°58' E 023°37'0 0.0
2017-Apr-25 18:30N 37°58' E 023°37'0 0.0
2017-Apr-25 18:01N 37°58' E 023°37'0 0.0
2017-Apr-25 17:31N 37°58' E 023°37'3 6.4
2017-Apr-25 17:00N 37°58' E 023°33'4 8.3
2017-Apr-25 16:31N 38°02' E 023°31'0 0.2
2017-Apr-25 16:00N 38°02' E 023°31'0 0.0
2017-Apr-25 15:30N 38°02' E 023°31'0 0.0
2017-Apr-25 15:00N 38°02' E 023°31'0 0.0
2017-Apr-25 14:01N 38°02' E 023°31'0 0.0
2017-Apr-25 13:31N 38°02' E 023°31'0 0.0
2017-Apr-25 13:00N 38°02' E 023°31'0 0.0
2017-Apr-25 12:30N 38°02' E 023°31'1 1.3
2017-Apr-25 12:01N 38°02' E 023°31'0 0.0
2017-Apr-25 11:31N 38°02' E 023°31'0 0.0
2017-Apr-25 11:00N 38°02' E 023°31'0 0.0
2017-Apr-25 10:31N 38°02' E 023°31'0 0.0
2017-Apr-25 10:00N 38°02' E 023°31'3 5.1
2017-Apr-25 09:31N 37°59' E 023°33'4 8.5
2017-Apr-25 09:01N 37°56' E 023°37'1 2.7
2017-Apr-25 08:30N 37°57' E 023°38'0 0.0
2017-Apr-25 08:00N 37°57' E 023°38'0 0.0
2017-Apr-25 07:31N 37°57' E 023°38'0 0.0
2017-Apr-25 07:01N 37°57' E 023°38'0 0.0
2017-Apr-25 06:30N 37°57' E 023°38'2 4.0
2017-Apr-25 06:01N 37°57' E 023°36'1 1.8
2017-Apr-25 05:31N 37°58' E 023°37'0 0.0
2017-Apr-25 05:01N 37°58' E 023°37'0 0.0
2017-Apr-25 04:31N 37°58' E 023°37'0 0.0
2017-Apr-25 04:00N 37°58' E 023°37'0 0.0
2017-Apr-25 03:31N 37°58' E 023°37'0 0.0
2017-Apr-25 03:01N 37°58' E 023°37'0 0.0
2017-Apr-25 02:31N 37°58' E 023°37'0 0.0
2017-Apr-25 02:01N 37°58' E 023°37'0 0.0
2017-Apr-25 01:31N 37°58' E 023°37'0 0.0
2017-Apr-25 01:01N 37°58' E 023°37'0 0.0
2017-Apr-25 00:30N 37°58' E 023°37'0 0.0
2017-Apr-25 00:00N 37°58' E 023°37'0 0.0
2017-Apr-24 23:31N 37°58' E 023°37'0 0.0
2017-Apr-24 23:01N 37°58' E 023°37'0 0.0
2017-Apr-24 22:31N 37°58' E 023°37'0 0.0
2017-Apr-24 22:01N 37°58' E 023°37'0 0.0
2017-Apr-24 21:31N 37°58' E 023°37'0 0.0
2017-Apr-24 21:01N 37°58' E 023°37'0 0.0
2017-Apr-24 20:31N 37°58' E 023°37'0 0.0
2017-Apr-24 20:01N 37°58' E 023°37'0 0.0
2017-Apr-24 19:31N 37°58' E 023°37'0 0.0
2017-Apr-24 19:00N 37°58' E 023°37'0 0.0
2017-Apr-24 18:31N 37°58' E 023°37'0 0.0
2017-Apr-24 18:01N 37°58' E 023°37'0 0.0
2017-Apr-24 17:30N 37°58' E 023°37'0 0.0
2017-Apr-24 17:01N 37°58' E 023°37'0 0.0
2017-Apr-24 16:31N 37°58' E 023°37'0 0.0
2017-Apr-24 16:01N 37°58' E 023°37'0 0.0
2017-Apr-24 15:31N 37°58' E 023°37'0 0.0
2017-Apr-24 15:00N 37°58' E 023°37'0 0.0
2017-Apr-24 14:31N 37°58' E 023°37'0 0.0
2017-Apr-24 13:31N 37°58' E 023°37'0 0.0
2017-Apr-24 13:01N 37°58' E 023°37'0 0.0
2017-Apr-24 12:31N 37°58' E 023°37'0 0.0
2017-Apr-24 12:01N 37°58' E 023°37'0 0.0
2017-Apr-24 11:30N 37°58' E 023°37'0 0.0
2017-Apr-24 11:01N 37°58' E 023°37'0 0.0
2017-Apr-24 10:31N 37°58' E 023°37'0 1.0
2017-Apr-24 10:00N 37°57' E 023°36'2 3.9
2017-Apr-24 09:31N 37°56' E 023°38'0 0.0
2017-Apr-24 09:01N 37°56' E 023°38'0 0.0
2017-Apr-24 08:31N 37°56' E 023°38'0 0.0
2017-Apr-24 08:01N 37°56' E 023°38'0 0.0
2017-Apr-24 07:30N 37°56' E 023°38'0 0.0
2017-Apr-24 07:00N 37°56' E 023°38'0 0.0
2017-Apr-24 06:31N 37°56' E 023°38'0 0.0
2017-Apr-24 06:00N 37°56' E 023°38'1 2.3
2017-Apr-24 05:31N 37°56' E 023°37'1 2.1
2017-Apr-24 05:01N 37°58' E 023°37'0 0.0
2017-Apr-24 04:31N 37°58' E 023°37'0 0.0
2017-Apr-24 04:00N 37°58' E 023°37'0 0.0
2017-Apr-24 03:30N 37°58' E 023°37'0 0.0
2017-Apr-24 03:01N 37°58' E 023°37'0 0.0
2017-Apr-24 02:30N 37°58' E 023°37'0 0.0
2017-Apr-24 02:00N 37°58' E 023°37'0 0.0
2017-Apr-24 01:31N 37°58' E 023°37'0 0.0
2017-Apr-24 01:01N 37°58' E 023°37'0 0.0
2017-Apr-24 00:31N 37°58' E 023°37'0 0.0
2017-Apr-24 00:01N 37°58' E 023°37'0 0.0
2017-Apr-23 23:31N 37°58' E 023°37'0 0.0
2017-Apr-23 23:01N 37°58' E 023°37'0 0.0
2017-Apr-23 22:30N 37°58' E 023°37'0 0.0
2017-Apr-23 22:01N 37°58' E 023°37'0 0.0
2017-Apr-23 21:30N 37°58' E 023°37'0 0.0
2017-Apr-23 21:00N 37°58' E 023°37'0 0.0
2017-Apr-23 20:31N 37°58' E 023°37'0 0.0
2017-Apr-23 20:01N 37°58' E 023°37'0 0.0
2017-Apr-23 19:31N 37°58' E 023°37'0 0.0
2017-Apr-23 19:01N 37°58' E 023°37'0 0.0
2017-Apr-23 18:30N 37°58' E 023°37'0 0.0
2017-Apr-23 18:00N 37°58' E 023°37'0 0.0
2017-Apr-23 17:30N 37°58' E 023°37'0 0.0
2017-Apr-23 17:01N 37°58' E 023°37'0 0.0
2017-Apr-23 16:30N 37°58' E 023°37'0 0.0
2017-Apr-23 16:00N 37°58' E 023°37'0 0.0
2017-Apr-23 15:30N 37°58' E 023°37'0 0.0
2017-Apr-23 15:01N 37°58' E 023°37'0 0.0
2017-Apr-23 14:00N 37°58' E 023°37'0 0.0
2017-Apr-23 13:30N 37°58' E 023°37'0 0.0
2017-Apr-23 13:00N 37°58' E 023°37'0 0.0
2017-Apr-23 12:30N 37°58' E 023°37'0 0.0
2017-Apr-23 12:00N 37°58' E 023°37'0 0.0
2017-Apr-23 11:31N 37°58' E 023°37'0 0.0
2017-Apr-23 11:01N 37°58' E 023°37'0 0.0
2017-Apr-23 10:31N 37°58' E 023°37'0 0.0
2017-Apr-23 10:01N 37°58' E 023°37'0 0.0
2017-Apr-23 09:31N 37°58' E 023°37'0 0.0
2017-Apr-23 09:00N 37°58' E 023°37'0 0.0
2017-Apr-23 08:31N 37°58' E 023°37'0 0.0
2017-Apr-23 08:00N 37°58' E 023°37'0 0.0
2017-Apr-23 07:30N 37°58' E 023°37'0 0.0
2017-Apr-23 07:00N 37°58' E 023°37'0 0.0
2017-Apr-23 06:31N 37°58' E 023°37'0 0.0
2017-Apr-23 06:01N 37°58' E 023°37'0 0.0
2017-Apr-23 05:31N 37°58' E 023°37'0 0.0
2017-Apr-23 05:01N 37°58' E 023°37'0 0.0
2017-Apr-23 04:31N 37°58' E 023°37'0 0.0
2017-Apr-23 04:00N 37°58' E 023°37'0 0.0
2017-Apr-23 03:30N 37°58' E 023°37'0 0.0
2017-Apr-23 03:00N 37°58' E 023°37'0 0.0
2017-Apr-23 02:31N 37°58' E 023°37'0 0.0
2017-Apr-23 02:01N 37°58' E 023°37'0 0.0
2017-Apr-23 01:31N 37°58' E 023°37'0 0.0
2017-Apr-23 01:01N 37°58' E 023°37'0 0.0
2017-Apr-23 00:31N 37°58' E 023°37'0 0.0
2017-Apr-23 00:01N 37°58' E 023°37'0 0.0
2017-Apr-22 23:30N 37°58' E 023°37'0 0.0
2017-Apr-22 23:01N 37°58' E 023°37'0 0.0
2017-Apr-22 22:31N 37°58' E 023°37'0 0.0
2017-Apr-22 22:01N 37°58' E 023°37'0 0.0
2017-Apr-22 21:30N 37°58' E 023°37'0 0.0
2017-Apr-22 21:00N 37°58' E 023°37'0 0.0
2017-Apr-22 20:31N 37°58' E 023°37'0 0.0
2017-Apr-22 20:01N 37°58' E 023°37'0 0.0
2017-Apr-22 19:31N 37°58' E 023°37'0 0.0
2017-Apr-22 19:00N 37°58' E 023°37'0 0.0
2017-Apr-22 18:31N 37°58' E 023°37'0 0.0
2017-Apr-22 18:01N 37°58' E 023°37'0 0.0
2017-Apr-22 17:30N 37°58' E 023°37'0 0.0
2017-Apr-22 17:01N 37°58' E 023°37'0 0.0
2017-Apr-22 16:31N 37°58' E 023°37'0 0.0
2017-Apr-22 16:01N 37°58' E 023°37'0 0.0
2017-Apr-22 15:30N 37°58' E 023°37'0 0.0
2017-Apr-22 15:01N 37°58' E 023°37'0 0.0
2017-Apr-22 14:31N 37°58' E 023°37'0 0.0
2017-Apr-22 13:30N 37°58' E 023°37'0 0.0
2017-Apr-22 13:01N 37°58' E 023°37'0 0.0
2017-Apr-22 12:30N 37°58' E 023°37'0 0.0
2017-Apr-22 12:01N 37°58' E 023°37'0 0.0
2017-Apr-22 11:30N 37°58' E 023°37'0 0.0
2017-Apr-22 11:00N 37°58' E 023°37'0 0.0
2017-Apr-22 10:31N 37°58' E 023°37'0 0.0
2017-Apr-22 10:01N 37°58' E 023°37'1 1.4
2017-Apr-22 09:31N 37°57' E 023°36'3 6.5
2017-Apr-22 09:01N 37°59' E 023°33'3 6.6
2017-Apr-22 08:30N 38°02' E 023°31'0 0.0
2017-Apr-22 08:01N 38°02' E 023°31'0 0.0
2017-Apr-22 07:31N 38°02' E 023°31'0 0.0
2017-Apr-22 07:00N 38°02' E 023°31'0 0.0
2017-Apr-22 06:31N 38°02' E 023°31'0 0.0
2017-Apr-22 06:01N 38°02' E 023°31'1 2.8
2017-Apr-22 05:30N 38°01' E 023°32'4 8.0
2017-Apr-22 05:01N 37°57' E 023°34'2 4.7
2017-Apr-22 04:31N 37°58' E 023°37'0 0.0
2017-Apr-22 04:00N 37°58' E 023°37'0 0.0
2017-Apr-22 03:30N 37°58' E 023°37'0 0.0
2017-Apr-22 03:01N 37°58' E 023°37'0 0.0
2017-Apr-22 02:30N 37°58' E 023°37'0 0.0
2017-Apr-22 02:00N 37°58' E 023°37'0 0.0
2017-Apr-22 01:31N 37°58' E 023°37'0 0.0
2017-Apr-22 01:00N 37°58' E 023°37'0 0.0
2017-Apr-22 00:30N 37°58' E 023°37'0 0.0
2017-Apr-22 00:01N 37°58' E 023°37'0 0.0
2017-Apr-21 23:31N 37°58' E 023°37'0 0.0
2017-Apr-21 23:01N 37°58' E 023°37'0 0.0
2017-Apr-21 22:31N 37°58' E 023°37'0 0.0
2017-Apr-21 22:01N 37°58' E 023°37'0 0.0
2017-Apr-21 21:30N 37°58' E 023°37'0 0.0
2017-Apr-21 21:01N 37°58' E 023°37'0 0.0
2017-Apr-21 20:31N 37°58' E 023°37'0 0.0
2017-Apr-21 20:01N 37°58' E 023°37'0 0.0
2017-Apr-21 19:31N 37°58' E 023°37'0 0.0
2017-Apr-21 19:01N 37°58' E 023°37'0 0.0
2017-Apr-21 18:30N 37°58' E 023°37'0 0.0
2017-Apr-21 18:01N 37°58' E 023°37'0 0.0
2017-Apr-21 17:31N 37°58' E 023°37'0 0.0
2017-Apr-21 17:01N 37°58' E 023°37'0 0.0
2017-Apr-21 16:30N 37°58' E 023°37'2 4.1
2017-Apr-21 16:01N 37°57' E 023°34'4 7.2
2017-Apr-21 15:31N 38°01' E 023°34'1 2.8
2017-Apr-21 15:00N 38°02' E 023°36'0 0.0
2017-Apr-21 14:30N 38°02' E 023°36'0 0.0
2017-Apr-21 13:30N 38°02' E 023°36'0 0.0
2017-Apr-21 13:01N 38°02' E 023°36'0 0.2
2017-Apr-21 12:31N 38°02' E 023°36'1 1.0
2017-Apr-21 12:00N 38°02' E 023°35'0 0.0
2017-Apr-21 11:30N 38°02' E 023°35'0 0.0
2017-Apr-21 11:01N 38°02' E 023°35'0 0.8
2017-Apr-21 10:30N 38°01' E 023°35'4 7.9
2017-Apr-21 10:00N 37°57' E 023°34'3 6.9
2017-Apr-21 09:31N 37°57' E 023°38'0 0.0
2017-Apr-21 09:00N 37°57' E 023°38'0 0.0
2017-Apr-21 08:30N 37°57' E 023°38'0 0.0
2017-Apr-21 08:01N 37°57' E 023°38'0 0.0
2017-Apr-21 07:31N 37°57' E 023°38'0 0.2
2017-Apr-21 07:01N 37°57' E 023°38'0 0.0
2017-Apr-21 06:31N 37°57' E 023°38'0 0.0
2017-Apr-21 06:01N 37°57' E 023°38'0 0.0
2017-Apr-21 05:31N 37°57' E 023°38'0 0.0
2017-Apr-21 05:00N 37°57' E 023°38'2 4.0
2017-Apr-21 04:30N 37°57' E 023°36'1 1.8
2017-Apr-21 04:01N 37°58' E 023°37'0 0.0
2017-Apr-21 03:31N 37°58' E 023°37'0 0.0
2017-Apr-21 03:00N 37°58' E 023°37'0 0.0
2017-Apr-21 02:30N 37°58' E 023°37'0 0.0
2017-Apr-21 02:00N 37°58' E 023°37'0 0.0
2017-Apr-21 01:31N 37°58' E 023°37'0 0.0
2017-Apr-21 01:01N 37°58' E 023°37'0 0.0
2017-Apr-21 00:31N 37°58' E 023°37'0 0.0
2017-Apr-21 00:00N 37°58' E 023°37'0 0.0
2017-Apr-20 23:31N 37°58' E 023°37'0 0.0
2017-Apr-20 23:01N 37°58' E 023°37'0 0.0
2017-Apr-20 22:31N 37°58' E 023°37'0 0.0
2017-Apr-20 22:01N 37°58' E 023°37'0 0.0
2017-Apr-20 21:31N 37°58' E 023°37'0 0.0
2017-Apr-20 21:00N 37°58' E 023°37'0 0.0
2017-Apr-20 20:31N 37°58' E 023°37'0 0.0
2017-Apr-20 20:01N 37°58' E 023°37'0 0.0
2017-Apr-20 19:31N 37°58' E 023°37'0 0.0
2017-Apr-20 19:00N 37°58' E 023°37'0 0.0
2017-Apr-20 18:31N 37°58' E 023°37'0 0.0
2017-Apr-20 18:01N 37°58' E 023°37'0 0.0
2017-Apr-20 17:31N 37°58' E 023°37'0 0.0
2017-Apr-20 17:00N 37°58' E 023°37'0 0.0
2017-Apr-20 16:30N 37°58' E 023°37'0 0.0
2017-Apr-20 16:00N 37°58' E 023°37'0 0.0
2017-Apr-20 15:31N 37°58' E 023°37'0 0.0
2017-Apr-20 15:00N 37°58' E 023°37'0 0.0
2017-Apr-20 14:01N 37°58' E 023°37'0 0.0
2017-Apr-20 13:31N 37°58' E 023°37'0 0.0
2017-Apr-20 13:00N 37°58' E 023°37'0 0.0
2017-Apr-20 12:30N 37°58' E 023°37'0 0.0
2017-Apr-20 12:00N 37°58' E 023°37'2 4.1
2017-Apr-20 11:31N 37°57' E 023°34'4 8.6
2017-Apr-20 11:01N 38°01' E 023°32'1 2.7
2017-Apr-20 10:30N 38°02' E 023°31'0 0.0
2017-Apr-20 10:00N 38°02' E 023°31'0 0.0
2017-Apr-20 09:30N 38°02' E 023°31'0 0.0
2017-Apr-20 09:00N 38°02' E 023°31'0 0.0
2017-Apr-20 08:30N 38°02' E 023°31'1 2.7
2017-Apr-20 08:01N 38°02' E 023°32'3 5.4
2017-Apr-20 07:31N 38°02' E 023°36'0 0.0
2017-Apr-20 07:01N 38°02' E 023°36'0 0.0
2017-Apr-20 06:30N 38°02' E 023°36'0 0.0
2017-Apr-20 06:01N 38°02' E 023°36'0 0.0
2017-Apr-20 05:31N 38°02' E 023°36'0 0.1
2017-Apr-20 05:01N 38°02' E 023°36'4 8.5
2017-Apr-20 04:31N 37°58' E 023°33'3 6.2
2017-Apr-20 04:00N 37°58' E 023°37'0 0.0
2017-Apr-20 03:30N 37°58' E 023°37'0 0.0
2017-Apr-20 03:00N 37°58' E 023°37'0 0.0
2017-Apr-20 02:31N 37°58' E 023°37'0 0.0
2017-Apr-20 02:00N 37°58' E 023°37'0 0.0
2017-Apr-20 01:31N 37°58' E 023°37'0 0.0
2017-Apr-20 01:01N 37°58' E 023°37'0 0.0
2017-Apr-20 00:31N 37°58' E 023°37'0 0.0
2017-Apr-20 00:01N 37°58' E 023°37'0 0.0
2017-Apr-19 23:31N 37°58' E 023°37'0 0.0
2017-Apr-19 23:01N 37°58' E 023°37'0 0.0
2017-Apr-19 22:30N 37°58' E 023°37'0 0.0
2017-Apr-19 22:01N 37°58' E 023°37'0 0.0
2017-Apr-19 21:31N 37°58' E 023°37'0 0.0
2017-Apr-19 21:01N 37°58' E 023°37'0 0.0
2017-Apr-19 20:31N 37°58' E 023°37'0 0.0
2017-Apr-19 20:01N 37°58' E 023°37'0 0.0
2017-Apr-19 19:30N 37°58' E 023°37'0 0.0
2017-Apr-19 19:00N 37°58' E 023°37'0 0.0
2017-Apr-19 18:31N 37°58' E 023°37'0 0.0
2017-Apr-19 18:01N 37°58' E 023°37'0 0.0
2017-Apr-19 17:31N 37°58' E 023°37'0 0.0
2017-Apr-19 17:01N 37°58' E 023°37'0 0.0
2017-Apr-19 16:31N 37°58' E 023°37'0 0.0
2017-Apr-19 16:00N 37°58' E 023°37'0 0.0
2017-Apr-19 15:30N 37°58' E 023°37'0 0.0
2017-Apr-19 15:01N 37°58' E 023°37'0 0.0
2017-Apr-19 14:31N 37°58' E 023°37'0 0.0
2017-Apr-19 13:31N 37°58' E 023°37'0 0.0
2017-Apr-19 13:00N 37°58' E 023°37'0 0.6
2017-Apr-19 12:30N 37°57' E 023°36'1 2.9
2017-Apr-19 12:00N 37°56' E 023°37'1 1.3
2017-Apr-19 11:31N 37°57' E 023°38'0 0.0
2017-Apr-19 11:01N 37°57' E 023°38'0 0.0
2017-Apr-19 10:30N 37°57' E 023°38'0 0.0
2017-Apr-19 09:59N 37°57' E 023°38'0 0.0
2017-Apr-19 09:28N 37°57' E 023°38'0 0.0
2017-Apr-19 09:01N 37°57' E 023°38'0 0.0
2017-Apr-19 08:31N 37°57' E 023°38'0 0.5
2017-Apr-19 08:01N 37°57' E 023°38'0 0.0
2017-Apr-19 07:30N 37°57' E 023°38'0 0.0
2017-Apr-19 07:00N 37°57' E 023°38'0 0.0
2017-Apr-19 06:31N 37°57' E 023°38'0 0.2
2017-Apr-19 06:00N 37°57' E 023°38'1 2.9
2017-Apr-19 05:30N 37°58' E 023°37'0 0.0
2017-Apr-19 05:01N 37°58' E 023°37'0 0.0
2017-Apr-19 04:31N 37°58' E 023°37'0 0.0
2017-Apr-19 04:01N 37°58' E 023°37'0 0.0
2017-Apr-19 03:30N 37°58' E 023°37'0 0.0
2017-Apr-19 03:01N 37°58' E 023°37'0 0.0
2017-Apr-19 02:31N 37°58' E 023°37'0 0.0
2017-Apr-19 02:01N 37°58' E 023°37'0 0.0
2017-Apr-19 01:31N 37°58' E 023°37'0 0.0
2017-Apr-19 01:01N 37°58' E 023°37'0 0.0
2017-Apr-19 00:31N 37°58' E 023°37'0 0.0
2017-Apr-19 00:01N 37°58' E 023°37'0 0.0
2017-Apr-18 23:30N 37°58' E 023°37'0 0.0
2017-Apr-18 23:01N 37°58' E 023°37'0 0.0
2017-Apr-18 22:31N 37°58' E 023°37'0 0.0
2017-Apr-18 22:01N 37°58' E 023°37'0 0.0
2017-Apr-18 21:30N 37°58' E 023°37'0 0.0
2017-Apr-18 21:01N 37°58' E 023°37'0 0.0
2017-Apr-18 20:31N 37°58' E 023°37'0 0.0
2017-Apr-18 20:00N 37°58' E 023°37'0 0.0
2017-Apr-18 19:31N 37°58' E 023°37'0 0.0
2017-Apr-18 19:01N 37°58' E 023°37'0 0.0
2017-Apr-18 18:31N 37°58' E 023°37'0 0.0
2017-Apr-18 18:01N 37°58' E 023°37'0 0.0
2017-Apr-18 17:30N 37°58' E 023°37'0 0.0
2017-Apr-18 17:01N 37°58' E 023°37'1 2.0
2017-Apr-18 16:31N 37°57' E 023°36'3 5.0
2017-Apr-18 16:01N 37°58' E 023°33'4 8.2
2017-Apr-18 15:31N 38°02' E 023°31'0 0.3
2017-Apr-18 15:01N 38°02' E 023°31'0 0.0
2017-Apr-18 14:31N 38°02' E 023°31'0 0.0
2017-Apr-18 13:31N 38°02' E 023°31'0 0.0
2017-Apr-18 13:01N 38°02' E 023°31'3 5.4
2017-Apr-18 12:30N 38°01' E 023°34'1 2.7
2017-Apr-18 12:00N 38°02' E 023°36'0 0.0
2017-Apr-18 11:31N 38°02' E 023°36'0 0.0
2017-Apr-18 11:01N 38°02' E 023°36'0 0.0
2017-Apr-18 10:30N 38°02' E 023°36'0 0.5
2017-Apr-18 10:01N 38°02' E 023°35'1 2.0
2017-Apr-18 09:30N 38°01' E 023°34'2 3.3
2017-Apr-18 09:00N 38°01' E 023°32'0 0.0
2017-Apr-18 08:31N 38°01' E 023°32'2 4.0
2017-Apr-18 08:01N 37°59' E 023°33'4 7.9
2017-Apr-18 07:31N 37°57' E 023°36'1 3.0
2017-Apr-18 07:01N 37°57' E 023°38'0 0.0
2017-Apr-18 06:30N 37°57' E 023°38'0 0.0
2017-Apr-18 06:01N 37°57' E 023°38'0 0.0
2017-Apr-18 05:31N 37°57' E 023°38'0 0.0
2017-Apr-18 05:01N 37°57' E 023°38'0 0.4
2017-Apr-18 04:31N 37°57' E 023°38'0 0.0
2017-Apr-18 04:00N 37°57' E 023°38'0 0.0
2017-Apr-18 03:30N 37°57' E 023°38'0 0.0
2017-Apr-18 03:01N 37°57' E 023°38'0 0.0
2017-Apr-18 02:31N 37°57' E 023°38'0 0.0
2017-Apr-18 02:01N 37°57' E 023°38'1 2.8
2017-Apr-18 01:31N 37°57' E 023°37'1 2.0
2017-Apr-18 01:01N 37°58' E 023°37'0 0.0
2017-Apr-18 00:31N 37°58' E 023°37'0 0.0
2017-Apr-18 00:01N 37°58' E 023°37'0 0.0
2017-Apr-17 23:30N 37°58' E 023°37'0 0.0
2017-Apr-17 23:01N 37°58' E 023°37'0 0.0
2017-Apr-17 22:31N 37°58' E 023°37'0 0.0
2017-Apr-17 22:00N 37°58' E 023°37'0 0.0
2017-Apr-17 21:31N 37°58' E 023°37'0 0.0
2017-Apr-17 21:01N 37°58' E 023°37'0 0.0
2017-Apr-17 20:31N 37°58' E 023°37'0 0.0
2017-Apr-17 20:01N 37°58' E 023°37'0 0.0
2017-Apr-17 19:31N 37°58' E 023°37'0 0.0
2017-Apr-17 19:01N 37°58' E 023°37'0 0.0
2017-Apr-17 18:30N 37°58' E 023°37'0 0.0
2017-Apr-17 18:01N 37°58' E 023°37'0 0.0
2017-Apr-17 17:30N 37°58' E 023°37'0 0.0
2017-Apr-17 17:01N 37°58' E 023°37'0 0.0
2017-Apr-17 16:30N 37°58' E 023°37'0 0.0
2017-Apr-17 15:57N 37°58' E 023°37'0 0.0
2017-Apr-17 15:30N 37°58' E 023°37'0 0.0
2017-Apr-17 15:00N 37°58' E 023°37'0 0.0
2017-Apr-17 13:59N 37°58' E 023°37'0 0.0
2017-Apr-17 13:22N 37°58' E 023°37'0 0.0
2017-Apr-17 12:56N 37°58' E 023°37'0 0.0
2017-Apr-17 12:26N 37°58' E 023°37'0 0.0
2017-Apr-17 11:59N 37°58' E 023°37'0 0.0
2017-Apr-17 11:28N 37°58' E 023°37'0 0.0
2017-Apr-17 11:00N 37°58' E 023°37'0 0.0
2017-Apr-17 10:28N 37°58' E 023°37'0 0.0
2017-Apr-17 10:00N 37°58' E 023°37'0 0.0
2017-Apr-17 09:26N 37°58' E 023°37'0 0.0
2017-Apr-17 08:54N 37°58' E 023°37'0 0.0
2017-Apr-17 08:29N 37°58' E 023°37'0 0.0
2017-Apr-16 14:35N 37°58' E 023°37'0 0.0
2017-Apr-16 14:30N 37°58' E 023°37'0 0.0
2017-Apr-16 13:31N 37°58' E 023°37'0 0.0
2017-Apr-16 13:00N 37°58' E 023°37'0 0.0
2017-Apr-16 12:31N 37°58' E 023°37'0 0.0
2017-Apr-16 12:01N 37°58' E 023°37'0 0.0
2017-Apr-16 11:31N 37°58' E 023°37'0 0.0
2017-Apr-16 11:01N 37°58' E 023°37'0 0.0
2017-Apr-16 10:30N 37°58' E 023°37'0 0.0
2017-Apr-16 10:01N 37°58' E 023°37'0 0.0
2017-Apr-16 09:30N 37°58' E 023°37'0 0.0
2017-Apr-16 09:00N 37°58' E 023°37'0 0.0
2017-Apr-16 08:30N 37°58' E 023°37'0 0.0
2017-Apr-16 08:01N 37°58' E 023°37'0 0.0
2017-Apr-16 07:30N 37°58' E 023°37'0 0.0
2017-Apr-16 07:01N 37°58' E 023°37'0 0.0
2017-Apr-16 06:31N 37°58' E 023°37'0 0.0
2017-Apr-16 06:01N 37°58' E 023°37'  

Dump ship's entire track history